sensor_id;sensor_type;location;lat;lon;timestamp;pressure;altitude;pressure_sealevel;temperature;humidity
44131;BME280;29792;48.726;9.248;2022-08-03T00:02:10;97014.06;;;22.05;71.60
44131;BME280;29792;48.726;9.248;2022-08-03T00:04:35;97012.66;;;22.02;71.75
44131;BME280;29792;48.726;9.248;2022-08-03T00:07:00;97012.03;;;22.00;71.61
44131;BME280;29792;48.726;9.248;2022-08-03T00:09:25;97012.41;;;21.97;71.39
44131;BME280;29792;48.726;9.248;2022-08-03T00:11:51;97015.41;;;21.94;71.85
44131;BME280;29792;48.726;9.248;2022-08-03T00:14:16;97007.94;;;21.91;71.83
44131;BME280;29792;48.726;9.248;2022-08-03T00:16:41;97010.16;;;21.88;72.04
44131;BME280;29792;48.726;9.248;2022-08-03T00:19:07;97005.50;;;21.83;72.77
44131;BME280;29792;48.726;9.248;2022-08-03T00:21:32;97006.91;;;21.79;72.61
44131;BME280;29792;48.726;9.248;2022-08-03T00:23:57;97005.66;;;21.75;72.34
44131;BME280;29792;48.726;9.248;2022-08-03T00:26:22;97001.66;;;21.73;72.48
44131;BME280;29792;48.726;9.248;2022-08-03T00:28:48;97003.03;;;21.68;72.81
44131;BME280;29792;48.726;9.248;2022-08-03T00:31:13;97005.19;;;21.65;73.46
44131;BME280;29792;48.726;9.248;2022-08-03T00:33:39;97004.00;;;21.61;73.68
44131;BME280;29792;48.726;9.248;2022-08-03T00:36:04;97000.75;;;21.59;73.61
44131;BME280;29792;48.726;9.248;2022-08-03T00:38:30;97005.75;;;21.54;74.10
44131;BME280;29792;48.726;9.248;2022-08-03T00:40:55;97002.91;;;21.49;74.43
44131;BME280;29792;48.726;9.248;2022-08-03T00:43:24;96997.09;;;21.47;74.47
44131;BME280;29792;48.726;9.248;2022-08-03T00:45:49;97003.28;;;21.46;74.45
44131;BME280;29792;48.726;9.248;2022-08-03T00:48:15;97000.06;;;21.44;74.96
44131;BME280;29792;48.726;9.248;2022-08-03T00:50:41;97000.66;;;21.39;74.65
44131;BME280;29792;48.726;9.248;2022-08-03T00:53:09;96998.59;;;21.35;74.68
44131;BME280;29792;48.726;9.248;2022-08-03T00:55:36;97001.59;;;21.31;74.69
44131;BME280;29792;48.726;9.248;2022-08-03T00:58:02;97002.78;;;21.29;74.71
44131;BME280;29792;48.726;9.248;2022-08-03T01:00:31;97000.56;;;21.26;74.88
44131;BME280;29792;48.726;9.248;2022-08-03T01:02:57;97006.16;;;21.23;74.97
44131;BME280;29792;48.726;9.248;2022-08-03T01:05:22;96994.50;;;21.19;74.82
44131;BME280;29792;48.726;9.248;2022-08-03T01:13:30;96993.16;;;21.08;75.27
44131;BME280;29792;48.726;9.248;2022-08-03T01:16:13;96986.75;;;21.04;75.53
44131;BME280;29792;48.726;9.248;2022-08-03T01:18:56;96993.31;;;21.00;74.76
44131;BME280;29792;48.726;9.248;2022-08-03T01:21:56;96983.09;;;20.99;75.20
44131;BME280;29792;48.726;9.248;2022-08-03T01:27:47;96973.66;;;20.98;75.31
44131;BME280;29792;48.726;9.248;2022-08-03T01:30:16;96973.84;;;20.96;75.70
44131;BME280;29792;48.726;9.248;2022-08-03T01:32:50;96969.00;;;20.93;76.00
44131;BME280;29792;48.726;9.248;2022-08-03T01:35:44;96972.59;;;20.92;76.11
44131;BME280;29792;48.726;9.248;2022-08-03T01:38:17;96968.59;;;20.89;75.81
44131;BME280;29792;48.726;9.248;2022-08-03T01:40:46;96978.56;;;20.86;75.91
44131;BME280;29792;48.726;9.248;2022-08-03T01:43:15;96965.13;;;20.82;76.13
44131;BME280;29792;48.726;9.248;2022-08-03T01:45:42;96968.91;;;20.80;76.24
44131;BME280;29792;48.726;9.248;2022-08-03T01:48:08;96968.28;;;20.78;76.13
44131;BME280;29792;48.726;9.248;2022-08-03T01:50:36;96963.47;;;20.75;76.85
44131;BME280;29792;48.726;9.248;2022-08-03T01:53:02;96967.06;;;20.74;76.61
44131;BME280;29792;48.726;9.248;2022-08-03T01:55:29;96961.22;;;20.72;77.02
44131;BME280;29792;48.726;9.248;2022-08-03T01:57:58;96962.22;;;20.71;77.22
44131;BME280;29792;48.726;9.248;2022-08-03T02:00:26;96962.59;;;20.68;77.22
44131;BME280;29792;48.726;9.248;2022-08-03T02:02:53;96958.75;;;20.64;77.55
44131;BME280;29792;48.726;9.248;2022-08-03T02:05:19;96967.91;;;20.60;77.44
44131;BME280;29792;48.726;9.248;2022-08-03T02:07:47;96959.88;;;20.54;77.81
44131;BME280;29792;48.726;9.248;2022-08-03T02:10:14;96955.25;;;20.50;78.21
44131;BME280;29792;48.726;9.248;2022-08-03T02:12:43;96963.59;;;20.45;78.10
44131;BME280;29792;48.726;9.248;2022-08-03T02:15:10;96970.34;;;20.40;78.39
44131;BME280;29792;48.726;9.248;2022-08-03T02:17:37;96967.66;;;20.33;78.26
44131;BME280;29792;48.726;9.248;2022-08-03T02:20:03;96967.38;;;20.28;78.78
44131;BME280;29792;48.726;9.248;2022-08-03T02:22:30;96971.38;;;20.24;79.44
44131;BME280;29792;48.726;9.248;2022-08-03T02:24:57;96961.50;;;20.19;79.66
44131;BME280;29792;48.726;9.248;2022-08-03T02:27:24;96967.88;;;20.17;79.85
44131;BME280;29792;48.726;9.248;2022-08-03T02:29:54;96966.63;;;20.13;79.85
44131;BME280;29792;48.726;9.248;2022-08-03T02:32:26;96967.00;;;20.10;80.44
44131;BME280;29792;48.726;9.248;2022-08-03T02:34:54;96966.38;;;20.08;80.58
44131;BME280;29792;48.726;9.248;2022-08-03T02:37:24;96958.94;;;20.05;80.47
44131;BME280;29792;48.726;9.248;2022-08-03T02:39:56;96964.53;;;20.02;80.85
44131;BME280;29792;48.726;9.248;2022-08-03T02:42:23;96968.09;;;20.01;81.01
44131;BME280;29792;48.726;9.248;2022-08-03T02:44:52;96960.66;;;19.98;81.11
44131;BME280;29792;48.726;9.248;2022-08-03T02:47:19;96963.44;;;19.96;81.22
44131;BME280;29792;48.726;9.248;2022-08-03T02:49:47;96961.41;;;19.92;81.34
44131;BME280;29792;48.726;9.248;2022-08-03T02:52:12;96954.34;;;19.86;81.72
44131;BME280;29792;48.726;9.248;2022-08-03T02:54:39;96960.69;;;19.83;81.36
44131;BME280;29792;48.726;9.248;2022-08-03T02:57:06;96960.25;;;19.79;81.95
44131;BME280;29792;48.726;9.248;2022-08-03T02:59:33;96954.63;;;19.76;82.17
44131;BME280;29792;48.726;9.248;2022-08-03T03:01:59;96954.78;;;19.74;81.71
44131;BME280;29792;48.726;9.248;2022-08-03T03:04:27;96958.53;;;19.72;82.15
44131;BME280;29792;48.726;9.248;2022-08-03T03:06:54;96957.13;;;19.69;82.34
44131;BME280;29792;48.726;9.248;2022-08-03T03:09:20;96958.13;;;19.68;81.88
44131;BME280;29792;48.726;9.248;2022-08-03T03:11:48;96966.09;;;19.67;82.49
44131;BME280;29792;48.726;9.248;2022-08-03T03:14:14;96967.06;;;19.66;82.66
44131;BME280;29792;48.726;9.248;2022-08-03T03:16:40;96960.44;;;19.63;82.72
44131;BME280;29792;48.726;9.248;2022-08-03T03:19:10;96952.84;;;19.62;82.93
44131;BME280;29792;48.726;9.248;2022-08-03T03:21:37;96956.44;;;19.61;82.73
44131;BME280;29792;48.726;9.248;2022-08-03T03:24:05;96949.59;;;19.60;82.93
44131;BME280;29792;48.726;9.248;2022-08-03T03:26:31;96953.19;;;19.59;83.24
44131;BME280;29792;48.726;9.248;2022-08-03T03:28:57;96942.97;;;19.57;83.46
44131;BME280;29792;48.726;9.248;2022-08-03T03:31:22;96944.94;;;19.55;82.86
44131;BME280;29792;48.726;9.248;2022-08-03T03:33:47;96946.72;;;19.55;82.57
44131;BME280;29792;48.726;9.248;2022-08-03T03:36:13;96939.94;;;19.54;82.98
44131;BME280;29792;48.726;9.248;2022-08-03T03:38:38;96939.31;;;19.52;83.19
44131;BME280;29792;48.726;9.248;2022-08-03T03:41:04;96949.88;;;19.50;83.34
44131;BME280;29792;48.726;9.248;2022-08-03T03:43:29;96946.66;;;19.48;83.49
44131;BME280;29792;48.726;9.248;2022-08-03T03:45:56;96952.19;;;19.45;83.88
44131;BME280;29792;48.726;9.248;2022-08-03T03:48:23;96948.16;;;19.42;84.16
44131;BME280;29792;48.726;9.248;2022-08-03T03:50:49;96956.13;;;19.41;84.53
44131;BME280;29792;48.726;9.248;2022-08-03T03:53:14;96955.69;;;19.37;84.90
44131;BME280;29792;48.726;9.248;2022-08-03T03:55:40;96957.81;;;19.34;84.66
44131;BME280;29792;48.726;9.248;2022-08-03T03:58:06;96957.38;;;19.30;84.24
44131;BME280;29792;48.726;9.248;2022-08-03T04:00:32;96946.53;;;19.27;84.43
44131;BME280;29792;48.726;9.248;2022-08-03T04:02:57;96946.25;;;19.22;84.55
44131;BME280;29792;48.726;9.248;2022-08-03T04:05:22;96950.03;;;19.19;84.76
44131;BME280;29792;48.726;9.248;2022-08-03T04:08:08;96954.75;;;19.16;84.97
44131;BME280;29792;48.726;9.248;2022-08-03T04:11:12;96956.13;;;19.12;85.03
44131;BME280;29792;48.726;9.248;2022-08-03T04:13:43;96957.44;;;19.08;85.38
44131;BME280;29792;48.726;9.248;2022-08-03T04:16:12;96961.22;;;19.05;85.60
44131;BME280;29792;48.726;9.248;2022-08-03T04:18:40;96953.13;;;19.00;85.95
44131;BME280;29792;48.726;9.248;2022-08-03T04:21:09;96952.50;;;18.98;86.05
44131;BME280;29792;48.726;9.248;2022-08-03T04:23:39;96952.69;;;18.96;86.30
44131;BME280;29792;48.726;9.248;2022-08-03T04:26:08;96954.81;;;18.93;86.59
44131;BME280;29792;48.726;9.248;2022-08-03T04:28:36;96955.78;;;18.92;87.23
44131;BME280;29792;48.726;9.248;2022-08-03T04:31:04;96960.19;;;18.91;87.21
44131;BME280;29792;48.726;9.248;2022-08-03T04:33:32;96955.97;;;18.90;87.19
44131;BME280;29792;48.726;9.248;2022-08-03T04:36:01;96963.75;;;18.90;87.48
44131;BME280;29792;48.726;9.248;2022-08-03T04:38:29;96962.34;;;18.88;88.11
44131;BME280;29792;48.726;9.248;2022-08-03T04:40:55;96969.94;;;18.89;87.76
44131;BME280;29792;48.726;9.248;2022-08-03T04:43:21;96966.56;;;18.89;87.95
44131;BME280;29792;48.726;9.248;2022-08-03T04:45:48;96964.94;;;18.88;87.72
44131;BME280;29792;48.726;9.248;2022-08-03T04:48:15;96966.72;;;18.87;87.89
44131;BME280;29792;48.726;9.248;2022-08-03T04:50:41;96970.13;;;18.88;87.86
44131;BME280;29792;48.726;9.248;2022-08-03T04:53:07;96977.91;;;18.88;88.09
44131;BME280;29792;48.726;9.248;2022-08-03T04:55:34;96978.09;;;18.86;87.84
44131;BME280;29792;48.726;9.248;2022-08-03T04:58:00;96977.28;;;18.86;88.16
44131;BME280;29792;48.726;9.248;2022-08-03T05:00:26;96978.09;;;18.86;87.92
44131;BME280;29792;48.726;9.248;2022-08-03T05:02:52;96985.41;;;18.83;87.98
44131;BME280;29792;48.726;9.248;2022-08-03T05:05:18;96982.38;;;18.79;88.03
44131;BME280;29792;48.726;9.248;2022-08-03T05:07:44;96985.13;;;18.78;88.07
44131;BME280;29792;48.726;9.248;2022-08-03T05:10:10;96980.75;;;18.78;88.31
44131;BME280;29792;48.726;9.248;2022-08-03T05:12:36;96980.75;;;18.78;88.60
44131;BME280;29792;48.726;9.248;2022-08-03T05:15:01;96980.38;;;18.81;89.10
44131;BME280;29792;48.726;9.248;2022-08-03T05:17:27;96982.63;;;18.84;89.10
44131;BME280;29792;48.726;9.248;2022-08-03T05:19:53;96980.50;;;18.88;89.04
44131;BME280;29792;48.726;9.248;2022-08-03T05:22:19;96989.72;;;18.90;89.31
44131;BME280;29792;48.726;9.248;2022-08-03T05:24:44;96983.72;;;18.90;88.84
44131;BME280;29792;48.726;9.248;2022-08-03T05:27:09;96985.16;;;18.92;89.09
44131;BME280;29792;48.726;9.248;2022-08-03T05:29:36;96985.81;;;18.94;89.31
44131;BME280;29792;48.726;9.248;2022-08-03T05:32:02;96990.63;;;18.97;89.31
44131;BME280;29792;48.726;9.248;2022-08-03T05:34:27;96986.88;;;19.00;89.80
44131;BME280;29792;48.726;9.248;2022-08-03T05:36:52;96990.94;;;19.02;89.67
44131;BME280;29792;48.726;9.248;2022-08-03T05:39:17;96993.97;;;19.06;89.70
44131;BME280;29792;48.726;9.248;2022-08-03T05:41:43;96993.78;;;19.08;89.67
44131;BME280;29792;48.726;9.248;2022-08-03T05:44:08;96995.06;;;19.12;89.33
44131;BME280;29792;48.726;9.248;2022-08-03T05:46:33;96993.88;;;19.14;89.63
44131;BME280;29792;48.726;9.248;2022-08-03T05:48:58;96990.78;;;19.19;89.43
44131;BME280;29792;48.726;9.248;2022-08-03T05:51:24;96991.22;;;19.22;89.05
44131;BME280;29792;48.726;9.248;2022-08-03T05:53:49;96989.88;;;19.26;89.41
44131;BME280;29792;48.726;9.248;2022-08-03T05:56:14;96984.94;;;19.31;89.57
44131;BME280;29792;48.726;9.248;2022-08-03T05:58:39;96980.22;;;19.35;90.19
44131;BME280;29792;48.726;9.248;2022-08-03T06:01:05;96990.88;;;19.40;90.12
44131;BME280;29792;48.726;9.248;2022-08-03T06:03:30;96992.97;;;19.44;90.45
44131;BME280;29792;48.726;9.248;2022-08-03T06:05:55;96990.81;;;19.48;90.70
44131;BME280;29792;48.726;9.248;2022-08-03T06:08:22;96989.13;;;19.55;90.25
44131;BME280;29792;48.726;9.248;2022-08-03T06:10:48;96989.41;;;19.60;90.52
44131;BME280;29792;48.726;9.248;2022-08-03T06:13:13;96995.66;;;19.66;90.51
44131;BME280;29792;48.726;9.248;2022-08-03T06:15:39;96998.34;;;19.72;90.46
44131;BME280;29792;48.726;9.248;2022-08-03T06:18:04;97002.03;;;19.78;90.28
44131;BME280;29792;48.726;9.248;2022-08-03T06:20:29;96998.06;;;19.82;90.11
44131;BME280;29792;48.726;9.248;2022-08-03T06:22:55;96994.75;;;19.88;89.33
44131;BME280;29792;48.726;9.248;2022-08-03T06:25:21;96992.22;;;19.95;88.68
44131;BME280;29792;48.726;9.248;2022-08-03T06:27:46;97002.72;;;20.01;88.08
44131;BME280;29792;48.726;9.248;2022-08-03T06:30:12;97002.78;;;20.08;87.87
44131;BME280;29792;48.726;9.248;2022-08-03T06:32:38;96996.06;;;20.13;88.02
44131;BME280;29792;48.726;9.248;2022-08-03T06:35:05;96997.91;;;20.19;88.10
44131;BME280;29792;48.726;9.248;2022-08-03T06:37:31;96998.59;;;20.28;87.98
44131;BME280;29792;48.726;9.248;2022-08-03T06:40:05;96999.78;;;20.40;88.51
44131;BME280;29792;48.726;9.248;2022-08-03T06:42:31;97003.72;;;20.51;88.54
44131;BME280;29792;48.726;9.248;2022-08-03T06:44:56;96998.38;;;20.59;87.62
44131;BME280;29792;48.726;9.248;2022-08-03T06:47:21;97000.06;;;20.67;87.06
44131;BME280;29792;48.726;9.248;2022-08-03T06:49:46;97003.53;;;20.74;86.55
44131;BME280;29792;48.726;9.248;2022-08-03T06:52:12;97001.38;;;20.84;85.27
44131;BME280;29792;48.726;9.248;2022-08-03T06:54:37;97002.88;;;20.93;85.24
44131;BME280;29792;48.726;9.248;2022-08-03T06:57:03;97009.19;;;21.05;85.63
44131;BME280;29792;48.726;9.248;2022-08-03T06:59:28;97004.47;;;21.15;85.40
44131;BME280;29792;48.726;9.248;2022-08-03T07:01:53;97011.41;;;21.29;84.28
44131;BME280;29792;48.726;9.248;2022-08-03T07:04:19;97012.06;;;21.38;82.93
44131;BME280;29792;48.726;9.248;2022-08-03T07:06:44;97008.13;;;21.49;82.78
44131;BME280;29792;48.726;9.248;2022-08-03T07:09:09;97010.00;;;21.61;83.18
44131;BME280;29792;48.726;9.248;2022-08-03T07:11:35;97018.88;;;21.74;82.83
44131;BME280;29792;48.726;9.248;2022-08-03T07:14:00;97011.16;;;21.87;81.96
44131;BME280;29792;48.726;9.248;2022-08-03T07:16:26;97014.03;;;21.98;81.51
44131;BME280;29792;48.726;9.248;2022-08-03T07:18:51;97013.09;;;22.13;82.33
44131;BME280;29792;48.726;9.248;2022-08-03T07:21:16;97007.75;;;22.47;81.52
44131;BME280;29792;48.726;9.248;2022-08-03T07:23:41;97012.06;;;22.81;78.96
44131;BME280;29792;48.726;9.248;2022-08-03T07:26:07;97008.88;;;22.99;77.45
44131;BME280;29792;48.726;9.248;2022-08-03T07:28:32;97004.06;;;23.02;77.95
44131;BME280;29792;48.726;9.248;2022-08-03T07:30:58;97008.06;;;23.05;77.89
44131;BME280;29792;48.726;9.248;2022-08-03T07:33:23;97009.88;;;23.11;78.40
44131;BME280;29792;48.726;9.248;2022-08-03T07:35:48;97009.28;;;23.22;78.21
44131;BME280;29792;48.726;9.248;2022-08-03T07:38:14;97010.66;;;23.31;76.82
44131;BME280;29792;48.726;9.248;2022-08-03T07:40:40;97010.88;;;23.43;76.58
44131;BME280;29792;48.726;9.248;2022-08-03T07:43:05;97008.84;;;23.65;76.01
44131;BME280;29792;48.726;9.248;2022-08-03T07:45:31;97017.19;;;24.00;75.35
44131;BME280;29792;48.726;9.248;2022-08-03T07:47:56;97020.47;;;24.40;73.37
44131;BME280;29792;48.726;9.248;2022-08-03T07:50:22;97023.69;;;24.73;71.41
44131;BME280;29792;48.726;9.248;2022-08-03T07:52:47;97019.28;;;25.05;69.75
44131;BME280;29792;48.726;9.248;2022-08-03T07:55:13;97006.91;;;25.37;69.13
44131;BME280;29792;48.726;9.248;2022-08-03T07:57:39;97008.47;;;25.63;68.20
44131;BME280;29792;48.726;9.248;2022-08-03T08:00:07;97007.25;;;25.83;67.02
44131;BME280;29792;48.726;9.248;2022-08-03T08:02:36;97004.03;;;26.00;66.31
44131;BME280;29792;48.726;9.248;2022-08-03T08:05:01;97001.00;;;26.14;65.89
44131;BME280;29792;48.726;9.248;2022-08-03T08:07:27;97000.44;;;26.31;65.84
44131;BME280;29792;48.726;9.248;2022-08-03T08:09:52;97003.25;;;26.47;63.81
44131;BME280;29792;48.726;9.248;2022-08-03T08:12:17;96999.28;;;26.56;63.55
44131;BME280;29792;48.726;9.248;2022-08-03T08:14:42;96997.94;;;26.66;62.79
44131;BME280;29792;48.726;9.248;2022-08-03T08:17:10;97002.88;;;26.74;62.12
44131;BME280;29792;48.726;9.248;2022-08-03T08:19:36;97003.78;;;26.79;61.37
44131;BME280;29792;48.726;9.248;2022-08-03T08:22:01;97001.22;;;26.91;61.95
44131;BME280;29792;48.726;9.248;2022-08-03T08:24:26;97001.59;;;27.06;62.08
44131;BME280;29792;48.726;9.248;2022-08-03T08:26:54;97002.50;;;27.23;62.76
44131;BME280;29792;48.726;9.248;2022-08-03T08:29:19;97000.56;;;27.42;62.63
44131;BME280;29792;48.726;9.248;2022-08-03T08:31:47;96996.56;;;27.63;61.29
44131;BME280;29792;48.726;9.248;2022-08-03T08:34:12;97004.56;;;27.80;58.62
44131;BME280;29792;48.726;9.248;2022-08-03T08:36:37;97001.66;;;27.93;58.95
44131;BME280;29792;48.726;9.248;2022-08-03T08:39:03;97007.56;;;28.12;60.06
44131;BME280;29792;48.726;9.248;2022-08-03T08:41:28;96999.50;;;28.30;59.30
44131;BME280;29792;48.726;9.248;2022-08-03T08:43:57;97000.34;;;28.47;56.69
44131;BME280;29792;48.726;9.248;2022-08-03T08:46:23;96993.19;;;28.59;56.88
44131;BME280;29792;48.726;9.248;2022-08-03T08:48:50;97004.00;;;28.74;56.57
44131;BME280;29792;48.726;9.248;2022-08-03T08:51:18;97010.03;;;28.87;53.90
44131;BME280;29792;48.726;9.248;2022-08-03T08:53:47;97000.13;;;28.94;55.15
44131;BME280;29792;48.726;9.248;2022-08-03T08:56:14;97000.63;;;29.07;54.59
44131;BME280;29792;48.726;9.248;2022-08-03T08:58:43;96994.13;;;29.15;53.41
44131;BME280;29792;48.726;9.248;2022-08-03T09:01:11;96999.81;;;29.23;52.61
44131;BME280;29792;48.726;9.248;2022-08-03T09:03:36;97003.97;;;29.36;53.72
44131;BME280;29792;48.726;9.248;2022-08-03T09:06:02;97003.09;;;29.47;52.54
44131;BME280;29792;48.726;9.248;2022-08-03T09:08:29;97004.34;;;29.45;49.56
44131;BME280;29792;48.726;9.248;2022-08-03T09:10:55;97002.69;;;29.39;50.53
44131;BME280;29792;48.726;9.248;2022-08-03T09:13:20;96993.00;;;29.44;52.77
44131;BME280;29792;48.726;9.248;2022-08-03T09:15:45;96999.22;;;29.55;51.56
44131;BME280;29792;48.726;9.248;2022-08-03T09:18:11;96994.88;;;29.66;51.88
44131;BME280;29792;48.726;9.248;2022-08-03T09:20:38;96997.91;;;29.74;50.92
44131;BME280;29792;48.726;9.248;2022-08-03T09:23:07;96990.88;;;29.85;50.59
44131;BME280;29792;48.726;9.248;2022-08-03T09:25:38;96991.84;;;29.95;49.92
44131;BME280;29792;48.726;9.248;2022-08-03T09:28:12;96989.09;;;30.07;51.12
44131;BME280;29792;48.726;9.248;2022-08-03T09:30:40;96986.06;;;30.20;50.41
44131;BME280;29792;48.726;9.248;2022-08-03T09:33:08;96987.00;;;30.36;51.86
44131;BME280;29792;48.726;9.248;2022-08-03T09:35:40;96984.06;;;30.54;50.40
44131;BME280;29792;48.726;9.248;2022-08-03T09:38:10;96989.44;;;30.64;48.34
44131;BME280;29792;48.726;9.248;2022-08-03T09:40:35;96989.25;;;30.71;47.31
44131;BME280;29792;48.726;9.248;2022-08-03T09:43:01;96990.88;;;30.77;47.49
44131;BME280;29792;48.726;9.248;2022-08-03T09:45:26;96987.53;;;30.87;47.58
44131;BME280;29792;48.726;9.248;2022-08-03T09:47:52;96990.75;;;30.94;47.23
44131;BME280;29792;48.726;9.248;2022-08-03T09:50:17;96988.38;;;30.97;46.62
44131;BME280;29792;48.726;9.248;2022-08-03T09:52:42;96996.13;;;31.04;46.88
44131;BME280;29792;48.726;9.248;2022-08-03T09:55:13;96990.34;;;31.07;46.24
44131;BME280;29792;48.726;9.248;2022-08-03T09:57:39;96984.78;;;31.08;46.61
44131;BME280;29792;48.726;9.248;2022-08-03T10:00:10;96987.22;;;31.15;45.60
44131;BME280;29792;48.726;9.248;2022-08-03T10:02:38;96985.38;;;31.16;47.26
44131;BME280;29792;48.726;9.248;2022-08-03T10:05:05;96981.69;;;31.22;46.32
44131;BME280;29792;48.726;9.248;2022-08-03T10:07:43;96978.31;;;31.26;47.35
44131;BME280;29792;48.726;9.248;2022-08-03T10:10:08;96977.53;;;31.31;46.13
44131;BME280;29792;48.726;9.248;2022-08-03T10:12:35;96971.97;;;31.27;43.45
44131;BME280;29792;48.726;9.248;2022-08-03T10:15:01;96971.91;;;31.22;42.98
44131;BME280;29792;48.726;9.248;2022-08-03T10:17:27;96972.19;;;31.21;43.15
44131;BME280;29792;48.726;9.248;2022-08-03T10:19:52;96970.59;;;31.20;44.09
44131;BME280;29792;48.726;9.248;2022-08-03T10:22:21;96977.50;;;31.26;43.45
44131;BME280;29792;48.726;9.248;2022-08-03T10:24:52;96977.56;;;31.36;44.61
44131;BME280;29792;48.726;9.248;2022-08-03T10:27:19;96969.16;;;31.44;45.27
44131;BME280;29792;48.726;9.248;2022-08-03T10:29:50;96964.91;;;31.48;44.52
44131;BME280;29792;48.726;9.248;2022-08-03T10:32:26;96968.13;;;31.50;43.67
44131;BME280;29792;48.726;9.248;2022-08-03T10:34:53;96966.00;;;31.52;45.06
44131;BME280;29792;48.726;9.248;2022-08-03T10:37:25;96962.03;;;31.55;43.37
44131;BME280;29792;48.726;9.248;2022-08-03T10:39:53;96960.97;;;31.56;43.84
44131;BME280;29792;48.726;9.248;2022-08-03T10:42:23;96957.34;;;31.62;44.57
44131;BME280;29792;48.726;9.248;2022-08-03T10:44:57;96949.91;;;31.64;43.13
44131;BME280;29792;48.726;9.248;2022-08-03T10:47:25;96959.72;;;31.63;43.34
44131;BME280;29792;48.726;9.248;2022-08-03T10:49:51;96952.56;;;31.64;43.03
44131;BME280;29792;48.726;9.248;2022-08-03T10:52:16;96952.31;;;31.65;43.99
44131;BME280;29792;48.726;9.248;2022-08-03T10:54:43;96948.38;;;31.68;43.63
44131;BME280;29792;48.726;9.248;2022-08-03T10:57:48;96939.38;;;31.69;41.60
44131;BME280;29792;48.726;9.248;2022-08-03T11:00:19;96949.97;;;31.69;41.40
44131;BME280;29792;48.726;9.248;2022-08-03T11:03:12;96945.41;;;31.64;40.12
44131;BME280;29792;48.726;9.248;2022-08-03T11:05:42;96944.59;;;31.59;41.77
44131;BME280;29792;48.726;9.248;2022-08-03T11:08:32;96941.38;;;31.57;40.91
44131;BME280;29792;48.726;9.248;2022-08-03T11:14:04;96940.31;;;31.53;40.71
44131;BME280;29792;48.726;9.248;2022-08-03T11:16:34;96935.81;;;31.53;42.40
44131;BME280;29792;48.726;9.248;2022-08-03T11:19:05;96934.50;;;31.56;42.99
44131;BME280;29792;48.726;9.248;2022-08-03T11:27:25;96929.56;;;31.69;42.70
44131;BME280;29792;48.726;9.248;2022-08-03T11:40:44;96926.13;;;31.69;42.63
44131;BME280;29792;48.726;9.248;2022-08-03T11:48:33;96919.22;;;31.68;42.05
44131;BME280;29792;48.726;9.248;2022-08-03T11:51:00;96917.88;;;31.70;42.73
44131;BME280;29792;48.726;9.248;2022-08-03T11:53:26;96917.88;;;31.70;41.75
44131;BME280;29792;48.726;9.248;2022-08-03T11:55:52;96920.53;;;31.70;40.89
44131;BME280;29792;48.726;9.248;2022-08-03T11:58:21;96916.56;;;31.68;41.36
44131;BME280;29792;48.726;9.248;2022-08-03T12:00:48;96916.31;;;31.69;41.88
44131;BME280;29792;48.726;9.248;2022-08-03T12:03:16;96910.47;;;31.72;43.30
44131;BME280;29792;48.726;9.248;2022-08-03T12:05:49;96910.50;;;31.77;42.59
44131;BME280;29792;48.726;9.248;2022-08-03T12:10:51;96900.97;;;31.87;43.59
44131;BME280;29792;48.726;9.248;2022-08-03T12:13:17;96907.63;;;31.89;43.90
44131;BME280;29792;48.726;9.248;2022-08-03T12:15:48;96907.66;;;31.94;42.96
44131;BME280;29792;48.726;9.248;2022-08-03T12:18:15;96904.19;;;31.94;42.59
44131;BME280;29792;48.726;9.248;2022-08-03T12:20:41;96906.84;;;31.94;41.83
44131;BME280;29792;48.726;9.248;2022-08-03T12:23:07;96907.09;;;31.92;42.94
44131;BME280;29792;48.726;9.248;2022-08-03T12:25:34;96899.16;;;31.92;42.66
44131;BME280;29792;48.726;9.248;2022-08-03T12:28:18;96904.72;;;31.96;42.68
44131;BME280;29792;48.726;9.248;2022-08-03T12:30:45;96908.16;;;31.96;42.97
44131;BME280;29792;48.726;9.248;2022-08-03T12:33:13;96893.84;;;31.97;42.92
44131;BME280;29792;48.726;9.248;2022-08-03T12:35:38;96898.34;;;31.97;42.42
44131;BME280;29792;48.726;9.248;2022-08-03T12:38:04;96887.75;;;31.97;42.37
44131;BME280;29792;48.726;9.248;2022-08-03T12:40:30;96896.25;;;31.99;43.80
44131;BME280;29792;48.726;9.248;2022-08-03T12:42:55;96888.28;;;32.04;44.57
44131;BME280;29792;48.726;9.248;2022-08-03T12:45:28;96889.91;;;32.10;44.13
44131;BME280;29792;48.726;9.248;2022-08-03T12:48:00;96886.97;;;32.11;42.08
44131;BME280;29792;48.726;9.248;2022-08-03T12:50:36;96890.44;;;32.12;42.68
44131;BME280;29792;48.726;9.248;2022-08-03T12:53:04;96887.78;;;32.12;42.30
44131;BME280;29792;48.726;9.248;2022-08-03T12:55:30;96884.31;;;32.11;42.31
44131;BME280;29792;48.726;9.248;2022-08-03T12:57:59;96887.25;;;32.15;41.34
44131;BME280;29792;48.726;9.248;2022-08-03T13:00:25;96880.13;;;32.15;42.41
44131;BME280;29792;48.726;9.248;2022-08-03T13:03:02;96874.56;;;32.17;42.82
44131;BME280;29792;48.726;9.248;2022-08-03T13:05:29;96875.63;;;32.21;41.46
44131;BME280;29792;48.726;9.248;2022-08-03T13:07:55;96879.34;;;32.20;40.31
44131;BME280;29792;48.726;9.248;2022-08-03T13:10:31;96877.75;;;32.24;39.14
44131;BME280;29792;48.726;9.248;2022-08-03T13:12:58;96872.47;;;32.24;40.19
44131;BME280;29792;48.726;9.248;2022-08-03T13:15:26;96870.31;;;32.21;40.49
44131;BME280;29792;48.726;9.248;2022-08-03T13:17:53;96875.88;;;32.19;39.91
44131;BME280;29792;48.726;9.248;2022-08-03T13:20:19;96865.81;;;32.21;40.88
44131;BME280;29792;48.726;9.248;2022-08-03T13:22:46;96874.31;;;32.24;40.61
44131;BME280;29792;48.726;9.248;2022-08-03T13:25:11;96875.13;;;32.24;39.82
44131;BME280;29792;48.726;9.248;2022-08-03T13:27:38;96867.94;;;32.25;38.95
44131;BME280;29792;48.726;9.248;2022-08-03T13:30:04;96867.66;;;32.21;38.32
44131;BME280;29792;48.726;9.248;2022-08-03T13:32:29;96868.72;;;32.20;40.82
44131;BME280;29792;48.726;9.248;2022-08-03T13:34:54;96866.06;;;32.20;40.40
44131;BME280;29792;48.726;9.248;2022-08-03T13:37:20;96862.63;;;32.19;39.16
44131;BME280;29792;48.726;9.248;2022-08-03T13:39:45;96859.72;;;32.21;39.14